Time;durP1;ratioP1;P1;durP2;ratioP2;P2;SDS_P1;SDS_P2;PMS_P1;PMS_P2;Temp;Humidity;BMP_temperature;BMP_pressure;BME280_temperature;BME280_humidity;BME280_pressure;Samples;Min_cycle;Max_cycle;Signal;HPM_P1;HPM_P2
2022/11/11 00:00:48;;;;;;;118.05;110.18;;;;;;;13.86;72.62;102286.41;5016988;28;102162;-53
2022/11/11 00:03:15;;;;;;;111.50;104.25;;;;;;;13.86;72.69;102287.22;5021623;28;102270;-53
2022/11/11 00:05:42;;;;;;;106.97;99.83;;;;;;;13.86;72.61;102283.69;5030220;27;103881;-53
2022/11/11 00:08:09;;;;;;;117.47;109.75;;;;;;;13.86;72.56;102287.22;5035483;27;102186;-53
2022/11/11 00:10:37;;;;;;;118.45;110.57;;;;;;;13.86;72.59;102291.88;5023884;27;102393;-56
2022/11/11 00:13:04;;;;;;;108.32;101.28;;;;;;;13.88;72.76;102295.19;5027699;27;102607;-53
2022/11/11 00:15:35;;;;;;;122.80;114.85;;;;;;;13.87;72.62;102288.06;5028934;27;103849;-53
2022/11/11 00:26:19;;;;;;;117.93;110.13;;;;;;;13.87;72.62;102283.41;5017087;27;107985;-54
2022/11/11 00:28:45;;;;;;;107.63;100.30;;;;;;;13.87;72.65;102277.13;5018026;28;102243;-53
2022/11/11 00:31:13;;;;;;;109.50;102.38;;;;;;;13.86;72.77;102273.56;5015285;28;102338;-53
2022/11/11 00:33:39;;;;;;;118.85;111.05;;;;;;;13.88;72.67;102276.03;5017141;28;102602;-53
2022/11/11 00:36:07;;;;;;;115.07;107.60;;;;;;;13.88;72.66;102274.13;5033096;27;104005;-53
2022/11/11 00:38:44;;;;;;;113.20;105.57;;;;;;;13.89;72.53;102280.44;5033823;27;102084;-53
2022/11/11 00:41:11;;;;;;;113.00;105.05;;;;;;;13.87;72.77;102279.84;5025114;27;102408;-53
2022/11/11 00:43:40;;;;;;;109.90;102.40;;;;;;;13.86;72.94;102275.47;5033996;27;102263;-53
2022/11/11 00:51:51;;;;;;;115.07;107.57;;;;;;;13.88;72.69;102274.13;5002906;28;104949;-53
2022/11/11 00:54:17;;;;;;;108.57;101.25;;;;;;;13.88;72.78;102278.75;5016247;28;102727;-53
2022/11/11 00:56:44;;;;;;;111.88;104.07;;;;;;;13.86;72.73;102276.28;5031897;27;103918;-53
2022/11/11 00:59:12;;;;;;;115.80;108.10;;;;;;;13.87;72.60;102275.19;5028881;27;102730;-53
2022/11/11 01:01:39;;;;;;;119.32;111.20;;;;;;;13.87;72.84;102275.19;5005450;28;102274;-53
2022/11/11 01:04:05;;;;;;;115.97;108.18;;;;;;;13.87;72.87;102277.13;5010351;28;102159;-53
2022/11/11 01:06:33;;;;;;;107.57;100.07;;;;;;;13.88;72.58;102276.03;5003679;28;103964;-53
2022/11/11 01:09:04;;;;;;;117.78;109.63;;;;;;;13.85;72.55;102276.56;4996106;28;101982;-53
2022/11/11 01:11:32;;;;;;;114.13;106.30;;;;;;;13.87;72.85;102271.63;4998556;28;102051;-53
2022/11/11 01:13:58;;;;;;;107.65;100.22;;;;;;;13.85;72.76;102271.09;4996534;28;102165;-53
2022/11/11 01:16:26;;;;;;;120.32;112.07;;;;;;;13.86;72.82;102275.47;4994244;28;104108;-53
2022/11/11 01:18:54;;;;;;;110.20;102.93;;;;;;;13.88;72.69;102270.53;5008102;28;102611;-53
2022/11/11 01:21:22;;;;;;;120.05;111.93;;;;;;;13.87;72.68;102271.63;5005721;28;102150;-53
2022/11/11 01:23:52;;;;;;;118.97;110.70;;;;;;;13.86;72.69;102264.53;5026004;28;102403;-53
2022/11/11 01:26:21;;;;;;;111.03;103.63;;;;;;;13.86;72.73;102270.00;5046704;27;104161;-53
2022/11/11 01:28:48;;;;;;;;;;;;;;;13.86;72.84;102259.03;5032227;27;102447;-53
2022/11/11 01:31:16;;;;;;;122.85;114.57;;;;;;;13.88;72.85;102254.13;5014380;28;102211;-53
2022/11/11 01:33:45;;;;;;;122.22;114.15;;;;;;;13.88;72.68;102251.38;5025159;28;102147;-53
2022/11/11 01:36:13;;;;;;;121.07;112.97;;;;;;;13.88;72.68;102241.28;5033734;27;104786;-53
2022/11/11 01:38:43;;;;;;;107.30;100.05;;;;;;;13.86;72.82;102235.25;5029296;27;102036;-54
2022/11/11 01:43:56;;;;;;;120.60;112.75;;;;;;;13.89;72.75;102242.13;5026268;28;102062;-53
2022/11/11 01:46:30;;;;;;;113.85;106.15;;;;;;;13.86;72.95;102245.38;5023022;27;104080;-53
2022/11/11 01:49:18;;;;;;;113.00;105.63;;;;;;;13.86;72.86;102234.41;5031257;27;102046;-53
2022/11/11 01:51:50;;;;;;;112.60;105.15;;;;;;;13.89;72.68;102242.13;5014128;27;102179;-53
2022/11/11 01:54:19;;;;;;;115.60;107.88;;;;;;;13.87;72.73;102238.78;5021187;27;102601;-53
2022/11/11 01:56:49;;;;;;;106.47;99.38;;;;;;;13.86;72.95;102239.88;5013987;28;103907;-53
2022/11/11 01:59:16;;;;;;;114.63;106.90;;;;;;;13.86;72.94;102245.38;5020495;28;102475;-53
2022/11/11 02:01:45;;;;;;;109.70;102.55;;;;;;;13.86;72.83;102242.63;5028908;27;102073;-53
2022/11/11 02:07:03;;;;;;;113.00;105.47;;;;;;;13.87;72.88;102244.28;5026209;27;103151;-53
2022/11/11 02:09:30;;;;;;;110.68;103.07;;;;;;;13.88;72.95;102252.25;5019966;27;102435;-53
2022/11/11 02:14:52;;;;;;;115.05;107.65;;;;;;;13.87;73.03;102252.47;5021559;27;102628;-53
2022/11/11 02:17:22;;;;;;;107.95;100.90;;;;;;;13.88;72.79;102257.72;5023192;28;107861;-53
2022/11/11 02:19:54;;;;;;;107.65;100.65;;;;;;;13.89;73.02;102258.53;5023037;28;102376;-53
2022/11/11 02:22:28;;;;;;;107.80;100.85;;;;;;;13.89;72.78;102264.00;5022912;27;102148;-53
2022/11/11 02:24:58;;;;;;;107.63;100.60;;;;;;;13.89;73.00;102261.28;5022497;28;102874;-53
2022/11/11 02:27:29;;;;;;;104.82;97.68;;;;;;;13.87;72.85;102255.22;5015743;28;103918;-53
2022/11/11 02:29:58;;;;;;;105.82;98.65;;;;;;;13.87;72.64;102249.75;5013780;28;102290;-53
2022/11/11 02:32:25;;;;;;;114.97;107.60;;;;;;;13.86;73.06;102267.25;5013577;28;102374;-53
2022/11/11 02:34:51;;;;;;;111.50;104.43;;;;;;;13.87;73.19;102267.00;5019776;28;102139;-53
2022/11/11 02:37:20;;;;;;;116.78;109.35;;;;;;;13.87;73.01;102255.22;5028752;27;103760;-53
2022/11/11 02:39:49;;;;;;;111.68;104.72;;;;;;;13.88;73.02;102256.88;5023659;27;102394;-53
2022/11/11 02:42:20;;;;;;;112.23;105.07;;;;;;;13.87;72.98;102256.03;5027003;27;102316;-53
2022/11/11 02:44:47;;;;;;;105.25;98.25;;;;;;;13.89;73.20;102253.06;5018833;27;102446;-54
2022/11/11 02:47:13;;;;;;;104.75;98.00;;;;;;;13.89;73.06;102255.81;5031406;27;104096;-53
2022/11/11 02:49:40;;;;;;;110.00;102.72;;;;;;;13.87;73.16;102255.22;5032010;28;102422;-53
2022/11/11 02:52:07;;;;;;;111.43;104.18;;;;;;;13.85;73.07;102263.69;5031344;27;102757;-53
2022/11/11 02:54:34;;;;;;;103.45;96.65;;;;;;;13.88;73.05;102262.34;5026964;27;102391;-53
2022/11/11 02:57:07;;;;;;;108.88;101.82;;;;;;;13.87;73.04;102255.22;5045386;27;103890;-53
2022/11/11 02:59:37;;;;;;;110.93;103.88;;;;;;;13.88;73.10;102254.13;5044543;27;102267;-53
2022/11/11 03:02:04;;;;;;;108.07;101.43;;;;;;;13.87;73.08;102250.56;5044046;27;102545;-53
2022/11/11 03:04:31;;;;;;;104.38;97.55;;;;;;;13.88;72.95;102254.13;5035689;27;102580;-53
2022/11/11 03:06:58;;;;;;;111.18;104.10;;;;;;;13.88;73.19;102251.38;5043142;27;104817;-53
2022/11/11 03:09:26;;;;;;;108.50;101.63;;;;;;;13.87;73.04;102249.75;5045003;27;102508;-53
2022/11/11 03:11:55;;;;;;;103.32;96.57;;;;;;;13.87;73.40;102250.56;5042717;27;102485;-53
2022/11/11 03:14:22;;;;;;;104.93;98.20;;;;;;;13.87;73.00;102247.00;5052168;27;102584;-53
2022/11/11 03:19:35;;;;;;;111.03;103.97;;;;;;;13.87;73.21;102241.53;5042670;27;102886;-53
2022/11/11 03:22:03;;;;;;;113.75;106.40;;;;;;;13.87;72.96;102245.09;5047607;27;102593;-53
2022/11/11 03:27:15;;;;;;;105.00;98.45;;;;;;;13.89;73.09;102247.59;5035843;27;103888;-53
2022/11/11 03:29:41;;;;;;;109.53;102.30;;;;;;;13.87;73.08;102249.75;5037400;27;102429;-53
2022/11/11 03:32:09;;;;;;;101.13;94.65;;;;;;;13.89;73.19;102242.94;5047896;27;102772;-53
2022/11/11 03:34:36;;;;;;;106.70;99.80;;;;;;;13.88;72.96;102245.91;5054728;27;103521;-53
2022/11/11 03:39:49;;;;;;;107.07;100.18;;;;;;;13.89;73.00;102253.06;5045476;27;102532;-53
2022/11/11 03:42:16;;;;;;;102.78;96.22;;;;;;;13.89;73.27;102250.34;5042232;27;102382;-54
2022/11/11 03:44:42;;;;;;;114.97;107.68;;;;;;;13.91;73.13;102250.88;5038676;27;102199;-53
2022/11/11 03:47:10;;;;;;;105.15;98.30;;;;;;;13.88;73.09;102246.78;5035580;27;104223;-53
2022/11/11 03:49:37;;;;;;;105.82;99.15;;;;;;;13.88;73.29;102246.78;5043436;27;102166;-53
2022/11/11 03:52:04;;;;;;;108.28;101.28;;;;;;;13.88;73.25;102246.78;5043559;27;102306;-53
2022/11/11 03:54:30;;;;;;;112.90;105.72;;;;;;;13.89;73.17;102247.59;5043673;27;102196;-53
2022/11/11 03:57:29;;;;;;;105.30;98.60;;;;;;;13.89;73.29;102253.06;5052201;27;103924;-53
2022/11/11 03:59:43;;;;;;;106.82;100.03;;;;;;;13.88;73.07;102262.34;5036181;27;102707;-53
2022/11/11 04:10:31;;;;;;;111.63;104.50;;;;;;;13.89;72.95;102274.97;5040215;27;102375;-53
2022/11/11 04:25:47;;;;;;;112.78;105.72;;;;;;;13.88;73.29;102273.28;5051624;27;102223;-53
2022/11/11 04:26:52;;;;;;;114.10;106.82;;;;;;;13.89;73.23;102280.44;5045187;27;102425;-53
2022/11/11 04:29:27;;;;;;;100.18;93.75;;;;;;;13.89;73.17;102280.44;5047841;27;103944;-53
2022/11/11 04:34:45;;;;;;;110.88;103.65;;;;;;;13.89;73.25;102277.69;5054840;27;102340;-53
2022/11/11 04:37:13;;;;;;;105.00;97.88;;;;;;;13.90;73.21;102276.59;5039357;27;102401;-53
2022/11/11 04:42:26;;;;;;;105.13;98.43;;;;;;;13.88;73.33;102276.03;5051160;27;102245;-53
2022/11/11 04:47:38;;;;;;;109.63;102.68;;;;;;;13.87;73.30;102280.66;5052740;27;102342;-53
2022/11/11 04:50:07;;;;;;;106.78;100.20;;;;;;;13.90;73.30;102279.34;5037076;27;104023;-53
2022/11/11 04:52:33;;;;;;;;;;;;;;;13.87;73.54;102277.94;5052068;27;102388;-53
2022/11/11 04:57:46;;;;;;;109.15;102.13;;;;;;;13.87;73.25;102283.41;5055714;27;102575;-53
2022/11/11 05:00:15;;;;;;;110.43;103.45;;;;;;;13.90;73.30;102288.38;5038923;27;103675;-53
2022/11/11 05:08:54;;;;;;;104.93;98.25;;;;;;;13.90;73.43;102293.03;5048464;27;102849;-53
2022/11/11 05:11:05;;;;;;;110.68;103.75;;;;;;;13.89;73.40;102292.19;5035957;27;103973;-53
2022/11/11 05:22:15;;;;;;;105.30;98.75;;;;;;;13.89;73.36;102308.63;5036048;27;104045;-53
2022/11/11 05:27:32;;;;;;;100.85;94.40;;;;;;;13.94;73.16;102321.53;5045950;27;102119;-53
2022/11/11 05:29:58;;;;;;;94.18;88.30;;;;;;;13.91;73.44;102327.50;5035861;27;102201;-53
2022/11/11 05:32:25;;;;;;;105.82;99.40;;;;;;;13.89;73.64;102329.69;5046941;27;103891;-55
2022/11/11 05:34:52;;;;;;;103.70;96.80;;;;;;;13.92;73.37;102329.19;5038967;27;102062;-54
2022/11/11 05:37:20;;;;;;;102.47;96.07;;;;;;;13.92;73.40;102340.13;5037433;27;102067;-53
2022/11/11 05:39:47;;;;;;;95.27;89.10;;;;;;;13.92;73.43;102334.66;5049478;27;102257;-53
2022/11/11 05:42:13;;;;;;;101.40;94.80;;;;;;;13.92;73.36;102334.66;5041189;27;103872;-53
2022/11/11 05:44:40;;;;;;;99.97;93.47;;;;;;;13.91;73.56;102333.81;5040555;27;102428;-53
2022/11/11 05:47:07;;;;;;;103.38;96.82;;;;;;;13.92;73.37;102340.13;5044404;27;102785;-53
2022/11/11 05:49:34;;;;;;;99.80;93.57;;;;;;;13.91;73.34;102336.56;5046371;27;102298;-53
2022/11/11 05:52:01;;;;;;;99.38;92.55;;;;;;;13.93;73.44;102336.31;5039246;27;104860;-53
2022/11/11 05:54:29;;;;;;;104.60;98.13;;;;;;;13.91;73.38;102339.28;5039740;27;102533;-53
2022/11/11 05:56:56;;;;;;;107.17;100.53;;;;;;;13.93;73.38;102341.78;5041403;27;102338;-53
2022/11/11 05:59:23;;;;;;;105.18;98.40;;;;;;;13.91;73.38;102341.19;5047994;27;102619;-53
2022/11/11 06:01:50;;;;;;;98.40;92.18;;;;;;;13.93;73.42;102339.88;5048915;27;103904;-53
2022/11/11 06:04:16;;;;;;;105.28;98.68;;;;;;;13.93;73.24;102336.31;5047405;27;102301;-53
2022/11/11 06:06:43;;;;;;;100.43;94.05;;;;;;;13.92;73.46;102334.66;5042976;27;103039;-53
2022/11/11 06:09:09;;;;;;;104.60;97.85;;;;;;;13.92;73.36;102327.28;5046589;27;102539;-53
2022/11/11 06:11:38;;;;;;;101.63;95.18;;;;;;;13.93;73.29;102330.84;5045966;27;104116;-53
2022/11/11 06:14:05;;;;;;;;;;;;;;;13.93;73.20;102325.38;5055005;27;102174;-53
2022/11/11 06:16:33;;;;;;;89.85;83.90;;;;;;;13.92;73.60;102331.94;5053293;27;102386;-54
2022/11/11 06:19:03;;;;;;;91.78;85.78;;;;;;;13.92;73.60;102345.63;5035389;27;102230;-53
2022/11/11 06:21:31;;;;;;;99.05;92.78;;;;;;;13.91;73.50;102347.50;5037486;27;103989;-53
2022/11/11 06:23:58;;;;;;;101.67;95.23;;;;;;;13.93;73.53;102347.25;5034114;27;102542;-53
2022/11/11 06:26:25;;;;;;;105.75;99.15;;;;;;;13.93;73.42;102356.28;5045969;27;102426;-53
2022/11/11 06:28:54;;;;;;;98.28;92.00;;;;;;;13.93;73.48;102348.09;5054995;27;102487;-53
2022/11/11 06:31:22;;;;;;;103.10;96.53;;;;;;;13.92;73.51;102357.38;5051600;27;104079;-53
2022/11/11 06:33:49;;;;;;;101.70;95.27;;;;;;;13.92;73.74;102357.38;5053624;27;102053;-53
2022/11/11 06:36:17;;;;;;;95.38;89.10;;;;;;;13.93;73.44;102363.69;5053069;27;102436;-53
2022/11/11 06:38:44;;;;;;;106.18;99.32;;;;;;;13.92;73.39;102372.97;5052939;27;102451;-53
2022/11/11 06:41:12;;;;;;;97.25;91.13;;;;;;;13.93;73.65;102369.16;5038394;27;104031;-53
2022/11/11 06:43:39;;;;;;;100.28;93.53;;;;;;;13.92;73.59;102379.28;5053833;27;104026;-54
2022/11/11 06:46:15;;;;;;;94.55;88.38;;;;;;;13.92;73.49;102372.97;5052481;27;102229;-53
2022/11/11 06:48:42;;;;;;;101.05;94.55;;;;;;;13.92;73.69;102373.81;5050448;27;102672;-53
2022/11/11 06:51:10;;;;;;;103.53;97.22;;;;;;;13.92;73.47;102379.28;5042448;27;104014;-53
2022/11/11 06:53:37;;;;;;;97.53;91.38;;;;;;;13.92;73.64;102381.19;5037442;27;102112;-53
2022/11/11 06:56:06;;;;;;;97.05;90.80;;;;;;;13.91;73.57;102380.34;5043001;27;102557;-53
2022/11/11 06:58:33;;;;;;;103.68;97.15;;;;;;;13.93;73.46;102382.84;5044464;27;102606;-53
2022/11/11 07:01:03;;;;;;;106.57;100.05;;;;;;;13.92;73.47;102383.94;5039021;27;103887;-54
2022/11/11 07:03:32;;;;;;;102.53;96.00;;;;;;;13.91;73.68;102374.03;5048723;27;102566;-53
2022/11/11 07:06:01;;;;;;;102.10;95.82;;;;;;;13.91;73.75;102383.06;5045067;27;102374;-54
2022/11/11 07:08:29;;;;;;;104.27;97.77;;;;;;;13.93;73.76;102385.56;5053040;27;102389;-53
2022/11/11 07:10:58;;;;;;;104.10;97.47;;;;;;;13.91;73.84;102383.06;5042902;27;104256;-53
2022/11/11 07:13:24;;;;;;;103.75;97.15;;;;;;;13.92;73.57;102381.19;5047846;27;102230;-53
2022/11/11 07:15:51;;;;;;;96.22;90.25;;;;;;;13.91;73.56;102380.34;5044028;27;102523;-53
2022/11/11 07:18:18;;;;;;;107.53;100.90;;;;;;;13.94;73.58;102387.22;5052093;27;102602;-53
2022/11/11 07:20:46;;;;;;;98.32;92.10;;;;;;;13.92;73.68;102389.41;5051600;27;104101;-53
2022/11/11 07:23:13;;;;;;;97.93;91.53;;;;;;;13.93;73.52;102391.06;5041648;27;102318;-53
2022/11/11 07:25:42;;;;;;;94.17;88.27;;;;;;;13.93;73.53;102391.06;5040303;27;102339;-58
2022/11/11 07:28:09;;;;;;;101.05;94.70;;;;;;;13.92;73.56;102395.69;5050236;27;102250;-53
2022/11/11 07:30:37;;;;;;;91.97;86.13;;;;;;;13.94;73.59;102400.91;5055384;27;103951;-53
2022/11/11 07:33:03;;;;;;;103.22;96.75;;;;;;;13.93;73.71;102394.63;5056390;27;102194;-53
2022/11/11 07:35:30;;;;;;;97.60;91.55;;;;;;;13.93;73.57;102404.75;5056809;27;102442;-53
2022/11/11 07:37:58;;;;;;;104.43;98.07;;;;;;;13.93;73.55;102396.53;5043889;27;102708;-53
2022/11/11 07:40:25;;;;;;;104.95;98.47;;;;;;;13.94;73.74;102398.19;5048152;27;104317;-53
2022/11/11 07:42:51;;;;;;;98.70;92.60;;;;;;;13.94;73.71;102406.38;5038908;27;102330;-53
2022/11/11 07:45:18;;;;;;;99.70;93.50;;;;;;;13.92;73.69;102400.34;5038165;27;102472;-53
2022/11/11 07:47:44;;;;;;;101.05;94.78;;;;;;;13.92;73.65;102401.19;5037175;27;102112;-53
2022/11/11 07:50:11;;;;;;;100.35;94.20;;;;;;;13.92;73.56;102401.19;5043133;27;103872;-53
2022/11/11 07:52:38;;;;;;;98.70;92.70;;;;;;;13.91;73.68;102404.16;5055672;27;102570;-53
2022/11/11 07:55:08;;;;;;;101.60;95.43;;;;;;;13.94;73.71;102403.66;5042884;27;102328;-53
2022/11/11 07:57:34;;;;;;;90.65;85.00;;;;;;;13.93;73.56;102413.78;5044046;27;102328;-53
2022/11/11 08:00:02;;;;;;;97.43;91.45;;;;;;;13.93;73.44;102413.78;5043299;27;103909;-53
2022/11/11 08:02:29;;;;;;;107.00;100.57;;;;;;;13.90;73.63;102416.19;5047312;27;102073;-53
2022/11/11 08:04:57;;;;;;;103.32;97.13;;;;;;;13.92;73.61;102416.78;5055482;27;102668;-53
2022/11/11 08:07:23;;;;;;;103.63;97.50;;;;;;;13.92;73.66;102414.84;5055434;27;102478;-53
2022/11/11 08:09:50;;;;;;;104.22;98.05;;;;;;;13.91;73.60;102410.44;5045239;27;104029;-53
2022/11/11 08:15:04;;;;;;;93.15;87.63;;;;;;;13.91;73.62;102421.41;5053864;27;102365;-53
2022/11/11 08:17:36;;;;;;;92.20;86.50;;;;;;;13.91;73.64;102424.13;5051253;27;102080;-53
2022/11/11 08:20:04;;;;;;;89.93;84.47;;;;;;;13.92;73.56;102419.50;5054688;27;103808;-53
2022/11/11 08:22:35;;;;;;;102.45;96.32;;;;;;;13.91;73.67;102426.03;5045593;27;102374;-53
2022/11/11 08:25:02;;;;;;;94.10;88.35;;;;;;;13.92;73.63;102422.25;5054520;27;102904;-53
2022/11/11 08:27:31;;;;;;;94.78;89.07;;;;;;;13.92;73.69;102430.47;5051485;27;102200;-53
2022/11/11 08:29:57;;;;;;;100.05;94.15;;;;;;;13.93;73.53;102435.66;5035038;27;104128;-53
2022/11/11 08:32:24;;;;;;;100.90;94.65;;;;;;;13.91;73.57;102431.53;5031250;27;104647;-53
2022/11/11 08:34:51;;;;;;;97.30;91.25;;;;;;;13.93;73.57;102440.31;5032380;28;102413;-53
2022/11/11 08:37:17;;;;;;;108.93;102.25;;;;;;;13.92;73.63;102442.22;5034559;27;102329;-53
2022/11/11 08:39:43;;;;;;;97.78;92.03;;;;;;;13.92;73.59;102438.66;5021265;27;104130;-53
2022/11/11 08:42:10;;;;;;;101.50;95.57;;;;;;;13.93;73.71;102443.06;5026374;27;102365;-53
2022/11/11 08:44:39;;;;;;;105.15;98.80;;;;;;;13.92;73.72;102438.66;5028760;27;102650;-53
2022/11/11 08:47:05;;;;;;;97.88;91.82;;;;;;;13.93;73.55;102440.31;5016353;27;102232;-53
2022/11/11 08:49:32;;;;;;;98.05;92.07;;;;;;;13.93;73.53;102437.59;5020318;28;103931;-53
2022/11/11 08:51:58;;;;;;;99.30;93.20;;;;;;;13.93;73.48;102437.59;5028982;27;102421;-53
2022/11/11 08:54:26;;;;;;;102.00;95.80;;;;;;;13.92;73.51;102439.50;5019720;27;102087;-53
2022/11/11 08:56:52;;;;;;;91.47;85.95;;;;;;;13.93;73.68;102445.78;5032174;27;103235;-53
2022/11/11 08:59:18;;;;;;;105.13;98.90;;;;;;;13.92;73.59;102444.97;5027155;27;104125;-53
2022/11/11 09:01:46;;;;;;;102.43;96.35;;;;;;;13.93;73.63;102445.78;5034545;27;102296;-54
2022/11/11 09:04:13;;;;;;;96.88;91.03;;;;;;;13.90;73.48;102438.09;5019464;27;102412;-53
2022/11/11 09:06:42;;;;;;;100.40;94.32;;;;;;;13.93;73.60;102440.31;5031025;27;102225;-53
2022/11/11 09:09:08;;;;;;;97.70;91.80;;;;;;;13.93;73.53;102440.31;5018645;27;103963;-53
2022/11/11 09:11:35;;;;;;;93.47;87.72;;;;;;;13.93;73.50;102437.59;5022836;27;102483;-53
2022/11/11 09:14:03;;;;;;;97.97;92.20;;;;;;;13.94;73.69;102441.97;5025403;27;102732;-53
2022/11/11 09:16:30;;;;;;;93.20;87.50;;;;;;;13.90;73.58;102435.34;5031191;27;102170;-53
2022/11/11 09:18:58;;;;;;;94.90;89.22;;;;;;;13.90;73.47;102446.28;5013944;27;103943;-53
2022/11/11 09:21:24;;;;;;;91.80;86.43;;;;;;;13.91;73.52;102443.28;5021445;28;102213;-53
2022/11/11 09:23:51;;;;;;;89.82;84.43;;;;;;;13.89;73.63;102441.91;5030519;27;102670;-53
2022/11/11 09:26:17;;;;;;;104.00;98.00;;;;;;;13.92;73.48;102449.63;5031996;27;102714;-53
2022/11/11 09:28:45;;;;;;;93.00;87.40;;;;;;;13.91;73.60;102447.94;5027873;27;104134;-53
2022/11/11 09:31:12;;;;;;;95.13;89.40;;;;;;;13.91;73.61;102443.28;5019066;28;102218;-54
2022/11/11 09:33:40;;;;;;;104.38;98.00;;;;;;;13.90;73.65;102441.63;5033970;27;102150;-53
2022/11/11 09:36:08;;;;;;;95.47;89.80;;;;;;;13.91;73.68;102445.19;5030053;27;102656;-53
2022/11/11 09:38:35;;;;;;;91.07;85.77;;;;;;;13.92;73.93;102447.69;5023785;27;103900;-53
2022/11/11 09:41:14;;;;;;;96.20;90.60;;;;;;;13.91;73.64;102442.47;5015177;28;102429;-53
2022/11/11 09:43:51;;;;;;;94.07;88.25;;;;;;;13.91;73.51;102439.72;5016880;28;102631;-53
2022/11/11 09:46:36;;;;;;;100.45;94.68;;;;;;;13.90;73.47;102444.38;5031736;27;102654;-56
2022/11/11 09:49:27;;;;;;;95.85;90.20;;;;;;;13.91;73.62;102437.00;5017751;28;103900;-53
2022/11/11 09:52:02;;;;;;;96.43;90.72;;;;;;;13.90;73.63;102435.34;5021030;27;102547;-53
2022/11/11 09:54:35;;;;;;;95.90;90.40;;;;;;;13.91;73.33;102437.00;5022159;28;102468;-53
2022/11/11 09:57:06;;;;;;;94.65;89.07;;;;;;;13.90;73.80;102438.09;5026097;27;102047;-53
2022/11/11 09:59:40;;;;;;;95.93;90.28;;;;;;;13.91;73.59;102439.72;5023259;27;104069;-53
2022/11/11 10:02:18;;;;;;;93.03;87.47;;;;;;;13.90;73.47;102440.81;5017519;27;102233;-53
2022/11/11 10:04:51;;;;;;;99.95;94.10;;;;;;;13.90;73.85;102435.34;5016570;27;102642;-53
2022/11/11 10:07:27;;;;;;;98.65;93.00;;;;;;;13.90;73.47;102440.81;5018071;27;102362;-53
2022/11/11 10:10:02;;;;;;;91.22;86.05;;;;;;;13.91;73.70;102437.00;5014580;28;103935;-53
2022/11/11 10:12:36;;;;;;;94.35;88.80;;;;;;;13.90;73.47;102436.16;5018070;27;102386;-53
2022/11/11 10:15:10;;;;;;;;;;;;;;;13.91;73.46;102431.53;5017001;27;102211;-53
2022/11/11 10:17:41;;;;;;;;;;;;;;;13.89;73.72;102426.31;5018684;27;102444;-53
2022/11/11 10:20:16;;;;;;;87.90;82.55;;;;;;;13.89;73.67;102428.22;5018606;28;103894;-53
2022/11/11 10:22:48;;;;;;;98.20;92.30;;;;;;;13.88;73.73;102421.91;5017948;27;102316;-53
2022/11/11 10:25:21;;;;;;;93.78;88.18;;;;;;;13.91;73.53;102429.59;5017908;27;102629;-53
2022/11/11 10:27:53;;;;;;;95.13;89.43;;;;;;;13.90;73.74;102427.13;5014555;28;105454;-53
2022/11/11 10:30:23;;;;;;;92.45;86.93;;;;;;;13.90;73.66;102424.41;5019358;27;107827;-56
2022/11/11 10:32:56;;;;;;;94.70;88.95;;;;;;;13.90;73.72;102424.41;5019483;27;102617;-53
2022/11/11 10:35:25;;;;;;;93.22;87.60;;;;;;;13.91;73.67;102423.31;5019549;27;102466;-53
2022/11/11 10:38:00;;;;;;;103.20;97.00;;;;;;;13.89;73.78;102418.09;5019565;28;102707;-53
2022/11/11 10:40:33;;;;;;;97.90;91.88;;;;;;;13.91;73.59;102426.03;5019889;27;103711;-53
2022/11/11 10:43:00;;;;;;;103.20;97.07;;;;;;;13.92;73.63;102416.78;5020925;27;102692;-53
2022/11/11 10:45:30;;;;;;;96.85;91.10;;;;;;;13.93;73.63;102415.69;5019088;27;102379;-53
2022/11/11 10:48:01;;;;;;;96.25;90.50;;;;;;;13.91;73.64;102421.41;5021046;27;102493;-53
2022/11/11 10:50:33;;;;;;;91.25;85.57;;;;;;;13.92;73.73;102416.78;5019730;27;104373;-53
2022/11/11 10:53:11;;;;;;;98.10;92.22;;;;;;;13.91;73.70;102420.56;5021734;27;102440;-53
2022/11/11 10:55:45;;;;;;;91.40;85.88;;;;;;;13.90;73.71;102417.00;5030159;27;102710;-53
2022/11/11 10:58:19;;;;;;;93.03;87.28;;;;;;;13.90;73.74;102414.28;5024830;27;102391;-53
2022/11/11 11:00:49;;;;;;;93.55;88.03;;;;;;;13.92;73.79;102414.03;5021255;28;103886;-53
2022/11/11 11:08:37;;;;;;;96.60;90.93;;;;;;;13.92;73.60;102412.13;5001728;28;104172;-54
2022/11/11 11:11:14;;;;;;;97.72;91.93;;;;;;;13.92;73.56;102412.13;5003350;28;104128;-53
2022/11/11 11:13:44;;;;;;;97.43;91.50;;;;;;;13.92;73.92;102417.59;5006552;28;104928;-53
2022/11/11 11:16:17;;;;;;;97.57;91.75;;;;;;;13.95;73.82;102416.25;4999491;28;102556;-53
2022/11/11 11:18:43;;;;;;;95.88;90.38;;;;;;;13.93;73.57;102418.41;5002202;28;102342;-53
2022/11/11 11:21:10;;;;;;;99.68;93.82;;;;;;;13.93;73.55;102413.78;5003889;28;103934;-54
2022/11/11 11:23:41;;;;;;;93.97;88.47;;;;;;;13.92;73.87;102419.50;5005635;28;102268;-54
2022/11/11 11:26:09;;;;;;;97.57;91.90;;;;;;;13.92;73.89;102416.78;5004164;28;103074;-53
2022/11/11 11:28:52;;;;;;;89.07;83.57;;;;;;;13.92;73.43;102423.06;5008268;28;102609;-53
2022/11/11 11:31:34;;;;;;;94.60;88.88;;;;;;;13.92;73.82;102416.78;5001991;28;104989;-53
2022/11/11 11:34:00;;;;;;;93.45;87.88;;;;;;;13.92;73.60;102417.59;5001276;28;102308;-53
2022/11/11 11:36:27;;;;;;;98.57;92.70;;;;;;;13.94;73.66;102417.34;5001861;28;102546;-53
2022/11/11 11:38:55;;;;;;;97.32;91.75;;;;;;;13.94;73.55;102420.91;5004052;28;102434;-53
2022/11/11 11:41:37;;;;;;;95.18;89.68;;;;;;;13.93;73.65;102421.16;5008425;28;103983;-53
2022/11/11 11:44:24;;;;;;;96.65;91.05;;;;;;;13.92;73.81;102427.72;5010339;28;102137;-53
2022/11/11 11:46:53;;;;;;;91.85;86.28;;;;;;;13.93;73.76;102419.25;5007724;28;102506;-53
2022/11/11 11:49:31;;;;;;;91.50;86.05;;;;;;;13.93;73.84;102432.09;5018833;28;103488;-54
2022/11/11 11:52:06;;;;;;;89.60;84.35;;;;;;;13.93;73.90;102424.72;5006225;28;104019;-53
2022/11/11 11:54:49;;;;;;;92.25;86.78;;;;;;;13.92;73.73;102420.34;4998915;28;101943;-53
2022/11/11 11:57:26;;;;;;;96.55;90.97;;;;;;;13.92;73.73;102425.00;5008678;28;102243;-53
2022/11/11 11:59:58;;;;;;;98.10;92.18;;;;;;;13.94;73.77;102433.75;5006384;28;102540;-54
2022/11/11 12:02:47;;;;;;;93.75;88.35;;;;;;;13.93;73.52;102424.72;5013463;28;104081;-53
2022/11/11 12:05:22;;;;;;;94.95;89.28;;;;;;;13.92;73.81;102422.25;5016967;28;102659;-53
2022/11/11 12:08:05;;;;;;;99.75;93.82;;;;;;;13.94;73.56;102422.81;5013970;28;102097;-53
2022/11/11 12:10:42;;;;;;;96.65;90.93;;;;;;;13.93;73.88;102419.25;5000853;28;102855;-53
2022/11/11 12:13:27;;;;;;;97.75;92.13;;;;;;;13.93;73.72;102429.38;5006876;28;103876;-53
2022/11/11 12:16:05;;;;;;;88.20;82.97;;;;;;;13.93;73.65;102421.16;5003437;28;102383;-53
2022/11/11 12:18:57;;;;;;;99.28;93.47;;;;;;;13.93;73.77;102421.16;4999555;28;102044;-53
2022/11/11 12:21:33;;;;;;;91.03;85.38;;;;;;;13.94;74.01;102414.59;5002761;28;102516;-53
2022/11/11 12:24:10;;;;;;;95.47;89.95;;;;;;;13.95;73.86;102418.97;5007375;28;108708;-54
2022/11/11 12:26:45;;;;;;;98.55;92.72;;;;;;;13.92;74.03;102419.50;5011874;28;102085;-54
2022/11/11 12:29:27;;;;;;;86.72;81.55;;;;;;;13.91;74.06;102415.91;4998301;28;102039;-53
2022/11/11 12:32:11;;;;;;;96.00;90.43;;;;;;;13.93;73.80;102435.66;4998975;28;102549;-53
2022/11/11 12:35:03;;;;;;;90.75;85.47;;;;;;;13.95;73.78;102432.66;4996516;28;103980;-54